首页
METAR-TAF:

METAR-TAF

机场 :

開雲-羅尚博國際機場

開雲, 法屬圭亞那

纬度: 04-50N, 经度: 052-22W, 海拔: 105米

当前天气观测

该预报发布于34分钟前的21:00 UTC
风速8节,风向东转东北
温度 29°C
湿度 70%
气压 1009 hPa
能见度10公里或以上
1500米以下无云,无积雨云

METAR: SOCA 222100Z AUTO 07008KT CAVOK 29/23 Q1009 NOSIG

时间: 18:34 (21:34 UTC)

预报

该预报发布于5小时和34分钟前的16:00 UTC
预报有效从22日的 18点(UTC)到 23日的 18点(UTC)
风速12节,风向
能见度10公里或以上
散云层高于3000英尺
从 22日的 2300点(UTC)
风速3节,风向多变
能见度10公里或以上
1500米以下无云,无积雨云
成为
从 23日的 13点(UTC)到 23日的 14点(UTC)
风速10节,风向
能见度10公里或以上
散云层高于3000英尺

TAF: SOCA 221600Z 2218/2318 09012KT 9999 SCT030 FM222300 VRB03KT CAVOK BECMG 2313/2314 09010KT 9999 SCT030

超过4000个机场的气象观测和天气预报(METAR&TAF报告)。

可查询的气象台以黄色和红色小点在地图上表示。

将鼠标移到小点上方,可查看气象台名称。

然后点击查看天气观测和预报。

如需切换地图:点击带黑十字的绿色按钮放大地图;点击带横线的绿色按钮缩小地图;或者点击绿色箭头查看邻近地区的地图。


METAR-TAF: